createdAt,value
2022-12-11T15:55:29.627Z,98223.22
2022-12-11T15:56:02.171Z,98230.31
2022-12-11T15:56:34.740Z,98228.44
2022-12-11T15:57:12.697Z,98228.44
2022-12-11T15:57:58.359Z,98225.69
2022-12-11T15:58:30.790Z,98227.31
2022-12-11T15:59:05.644Z,98230.03
2022-12-11T15:59:38.012Z,98228.16
2022-12-11T16:00:15.209Z,98228.66
2022-12-11T16:00:47.942Z,98233.56
2022-12-11T16:01:20.379Z,98234.97
2022-12-11T16:01:52.831Z,98232.50
2022-12-11T16:02:25.248Z,98230.88
2022-12-11T16:02:58.399Z,98229.75
2022-12-11T16:03:30.860Z,98229.75
2022-12-11T16:04:05.125Z,98236.34
2022-12-11T16:04:37.805Z,98230.88
2022-12-11T16:05:10.680Z,98235.50
2022-12-11T16:05:43.378Z,98233.88
2022-12-11T16:06:15.760Z,98230.03
2022-12-11T16:06:48.130Z,98235.50
2022-12-11T16:07:23.666Z,98236.63
2022-12-11T16:07:56.078Z,98231.16
2022-12-11T16:08:28.506Z,98232.78
2022-12-11T16:09:00.925Z,98245.59
2022-12-11T16:09:33.285Z,98243.16
2022-12-11T16:10:06.875Z,98238.50
2022-12-11T16:10:39.238Z,98245.59
2022-12-11T16:11:14.043Z,98238.50
2022-12-11T16:11:46.405Z,98240.69
2022-12-11T16:12:18.921Z,98246.41
2022-12-11T16:12:51.276Z,98242.31
2022-12-11T16:13:23.634Z,98245.88
2022-12-11T16:13:55.989Z,98247.78
2022-12-11T16:14:28.390Z,98242.31
2022-12-11T16:15:00.757Z,98251.06
2022-12-11T16:15:33.213Z,98243.16
2022-12-11T16:16:49.325Z,98245.59
2022-12-11T16:17:22.320Z,98250.25
2022-12-11T16:18:03.574Z,98240.97
2022-12-11T16:18:36.599Z,98250.81
2022-12-11T16:19:09.612Z,98251.59
2022-12-11T16:19:43.840Z,98247.78
2022-12-11T16:20:16.838Z,98254.34
2022-12-11T16:20:50.488Z,98255.13
2022-12-11T16:21:23.538Z,98249.66
2022-12-11T16:21:56.576Z,98248.88
2022-12-11T16:22:29.558Z,98246.94
2022-12-11T16:23:02.707Z,98240.69
2022-12-11T16:23:35.697Z,98253.22
2022-12-11T16:24:08.677Z,98249.66
2022-12-11T16:24:42.875Z,98255.66
2022-12-11T16:25:15.901Z,98257.59
2022-12-11T16:25:49.594Z,98264.13
2022-12-11T16:26:22.614Z,98255.66
2022-12-11T16:26:55.805Z,98249.41
2022-12-11T16:27:28.820Z,98251.31
2022-12-11T16:28:02.660Z,98255.66
2022-12-11T16:28:35.781Z,98253.78
2022-12-11T16:29:08.773Z,98254.31
2022-12-11T16:29:42.624Z,98255.69
2022-12-11T16:30:15.756Z,98258.41
2022-12-11T16:30:49.165Z,98264.66
2022-12-11T16:31:24.913Z,98256.47
2022-12-11T16:31:57.993Z,98254.25
2022-12-11T16:32:31.002Z,98257.28
2022-12-11T16:33:11.815Z,98257.53
2022-12-11T16:33:45.683Z,98252.66
2022-12-11T16:34:19.452Z,98258.09
2022-12-11T16:34:52.435Z,98251.00
2022-12-11T16:35:25.424Z,98252.06
2022-12-11T16:35:58.831Z,98250.19
2022-12-11T16:36:31.860Z,98258.91
2022-12-11T16:37:09.776Z,98250.97
2022-12-11T16:37:42.780Z,98255.91
2022-12-11T16:38:15.762Z,98249.91
2022-12-11T16:38:53.758Z,98262.47
2022-12-11T16:39:28.153Z,98259.47
2022-12-11T16:40:01.149Z,98260.56
2022-12-11T16:40:34.154Z,98265.50
2022-12-11T16:41:07.157Z,98263.28
2022-12-11T16:41:42.707Z,98267.69
2022-12-11T16:42:15.691Z,98274.22
2022-12-11T16:42:49.321Z,98260.84
2022-12-11T16:43:22.319Z,98272.59
2022-12-11T16:43:55.382Z,98262.75
2022-12-11T16:44:28.394Z,98278.31
2022-12-11T16:45:07.088Z,98275.59
2022-12-11T16:45:40.106Z,98264.94
2022-12-11T16:46:13.157Z,98268.50
2022-12-11T16:46:46.243Z,98266.88
2022-12-11T16:47:19.298Z,98276.16
2022-12-11T16:47:53.259Z,98274.53
2022-12-11T16:48:26.266Z,98277.81
2022-12-11T16:48:59.253Z,98273.41
2022-12-11T19:56:54.773Z,98340.81
2022-12-11T19:57:26.814Z,98342.75
2022-12-11T19:57:58.874Z,98347.09
2022-12-11T19:58:30.917Z,98342.75
2022-12-11T19:59:02.980Z,98344.63
2022-12-11T19:59:35.019Z,98346.81
2022-12-11T20:00:07.056Z,98346.81
2022-12-11T20:00:39.154Z,98347.63
2022-12-11T20:01:11.273Z,98349.81
2022-12-11T20:01:43.444Z,98349.00
2022-12-11T20:02:15.513Z,98343.00
2022-12-11T20:02:47.603Z,98340.81
2022-12-11T20:03:19.641Z,98352.56
2022-12-11T20:04:22.803Z,98346.53
2022-12-11T20:04:56.913Z,98341.38
2022-12-11T20:05:31.200Z,98352.28
2022-12-11T20:06:08.926Z,98347.13
2022-12-11T20:06:45.705Z,98346.28
2022-12-11T20:07:20.147Z,98347.66
2022-12-11T20:07:54.516Z,98348.19
2022-12-11T20:08:44.285Z,98343.84
2022-12-11T20:09:19.929Z,98346.03
2022-12-11T20:09:54.313Z,98354.75
2022-12-11T20:10:28.998Z,98355.59
2022-12-11T20:11:11.586Z,98350.91
2022-12-11T20:11:48.732Z,98350.91
2022-12-11T20:12:23.073Z,98352.03
2022-12-11T20:13:00.174Z,98350.91
2022-12-11T20:13:34.540Z,98352.84
2022-12-11T20:14:09.120Z,98348.19
2022-12-11T20:14:43.557Z,98344.38
2022-12-11T20:15:20.126Z,98346.28
2022-12-11T20:15:54.511Z,98348.72
2022-12-11T20:16:53.769Z,98346.84
2022-12-11T20:17:23.452Z,98350.38
2022-12-11T20:18:20.839Z,98350.66
2022-12-11T20:18:56.274Z,98346.00
2022-12-11T20:19:30.773Z,98347.63
2022-12-11T20:20:37.697Z,98350.91
2022-12-11T20:21:15.860Z,98359.09
2022-12-11T20:21:50.140Z,98355.81
2022-12-11T20:22:57.268Z,98353.88
2022-12-11T20:23:31.573Z,98356.91
2022-12-11T20:24:06.060Z,98353.38
2022-12-11T20:24:40.413Z,98357.47
2022-12-11T20:25:14.945Z,98348.72
2022-12-11T20:25:50.073Z,98352.53
